Wetterdaten: Woche 11.07.16 - 17.07.16 (KW28)
Datum Zeit Temp. A. Feuchte A. Luftdruck Regen Wind Richtung Taupunkt Windchill Windben
11.07.2016 00:00 21,4 C 77 % 1012,0 hPa 0,0 l/m 0,5 km/h N 17,2 C 21,4 C 3,2 km/h
11.07.2016 01:00 22,5 C 75 % 1011,5 hPa 0,0 l/m 0,4 km/h N 17,9 C 22,5 C 3,6 km/h
11.07.2016 02:00 23,0 C 73 % 1010,9 hPa 0,0 l/m 2,0 km/h N 17,8 C 23,0 C 7,2 km/h
11.07.2016 03:00 23,5 C 70 % 1010,7 hPa 0,0 l/m 0,7 km/h N 17,7 C 23,5 C 4,4 km/h
11.07.2016 04:00 21,6 C 74 % 1010,6 hPa 0,0 l/m 0,0 km/h N 16,7 C 21,6 C 0,0 km/h
11.07.2016 05:00 19,5 C 79 % 1011,0 hPa 0,0 l/m 0,1 km/h N 15,8 C 19,5 C 1,6 km/h
11.07.2016 06:00 18,9 C 81 % 1011,4 hPa 0,0 l/m 0,0 km/h N 15,6 C 18,9 C 0,0 km/h
11.07.2016 07:00 20,2 C 81 % 1011,7 hPa 0,0 l/m 0,0 km/h N 16,8 C 20,2 C 1,6 km/h
11.07.2016 08:00 24,0 C 76 % 1011,9 hPa 0,0 l/m 0,1 km/h N 19,3 C 24,0 C 1,6 km/h
11.07.2016 09:00 29,0 C 61 % 1011,9 hPa 0,0 l/m 0,6 km/h N 20,7 C 29,0 C 5,6 km/h
11.07.2016 10:00 31,3 C 55 % 1011,7 hPa 0,0 l/m 1,5 km/h N 21,0 C 31,3 C 8,1 km/h
11.07.2016 11:00 33,6 C 49 % 1011,5 hPa 0,0 l/m 0,9 km/h N 21,4 C 33,6 C 6,8 km/h
11.07.2016 12:00 35,2 C 43 % 1011,1 hPa 0,0 l/m 0,8 km/h N 20,6 C 35,2 C 5,6 km/h
11.07.2016 13:00 34,8 C 44 % 1010,7 hPa 0,0 l/m 0,9 km/h N 20,6 C 34,8 C 6,0 km/h
11.07.2016 14:00 33,8 C 47 % 1010,4 hPa 0,0 l/m 0,3 km/h N 20,7 C 33,8 C 4,8 km/h
11.07.2016 15:00 31,7 C 53 % 1011,0 hPa 0,8 l/m 0,9 km/h N 21,0 C 31,7 C 7,2 km/h
11.07.2016 16:00 29,2 C 56 % 1011,0 hPa 0,0 l/m 0,8 km/h N 19,3 C 29,2 C 5,6 km/h
11.07.2016 17:00 30,5 C 49 % 1010,2 hPa 0,0 l/m 2,3 km/h N 18,4 C 30,5 C 12,9 km/h
11.07.2016 18:00 30,9 C 53 % 1009,9 hPa 0,0 l/m 2,3 km/h N 20,1 C 30,9 C 11,7 km/h
11.07.2016 19:00 31,0 C 55 % 1009,4 hPa 0,0 l/m 0,8 km/h N 20,9 C 31,0 C 6,4 km/h
11.07.2016 20:00 29,1 C 59 % 1009,2 hPa 0,0 l/m 0,0 km/h N 20,3 C 29,1 C 1,6 km/h
11.07.2016 21:00 26,6 C 67 % 1009,6 hPa 0,0 l/m 0,0 km/h N 19,9 C 26,6 C 0,0 km/h
11.07.2016 22:00 24,8 C 74 % 1009,5 hPa 0,0 l/m 0,0 km/h N 19,7 C 24,8 C 1,2 km/h
11.07.2016 23:00 25,1 C 71 % 1009,7 hPa 0,0 l/m 0,3 km/h N 19,4 C 25,1 C 3,2 km/h
12.07.2016 00:00 25,4 C 70 % 1011,1 hPa 0,0 l/m 6,4 km/h N 19,5 C 25,0 C 19,3 km/h
12.07.2016 01:00 24,0 C 71 % 1011,4 hPa 0,0 l/m 6,9 km/h N 18,4 C 23,7 C 21,3 km/h
12.07.2016 02:00 22,1 C 79 % 1011,3 hPa 2,6 l/m 4,1 km/h N 18,3 C 22,1 C 16,9 km/h
12.07.2016 03:00 21,1 C 81 % 1011,1 hPa 8,6 l/m 0,8 km/h N 17,7 C 21,1 C 7,2 km/h
12.07.2016 04:00 20,4 C 81 % 1011,1 hPa 0,0 l/m 0,2 km/h N 17,0 C 20,4 C 3,2 km/h
12.07.2016 05:00 20,3 C 81 % 1011,2 hPa 1,0 l/m 0,1 km/h N 17,0 C 20,3 C 2,4 km/h
12.07.2016 06:00 20,5 C 81 % 1011,0 hPa 0,0 l/m 0,2 km/h N 17,0 C 20,5 C 3,6 km/h
12.07.2016 07:00 21,1 C 80 % 1011,4 hPa 0,3 l/m 0,0 km/h N 17,5 C 21,1 C 2,0 km/h
12.07.2016 08:00 21,4 C 80 % 1012,0 hPa 1,0 l/m 0,0 km/h N 17,8 C 21,4 C 1,2 km/h
12.07.2016 09:00 22,8 C 80 % 1012,1 hPa 0,0 l/m 2,4 km/h N 19,1 C 22,8 C 9,3 km/h
12.07.2016 10:00 24,5 C 77 % 1012,2 hPa 0,0 l/m 3,8 km/h N 20,2 C 24,5 C 13,7 km/h
12.07.2016 11:00 26,7 C 70 % 1011,8 hPa 0,0 l/m 1,0 km/h N 20,7 C 26,7 C 6,8 km/h
12.07.2016 12:00 27,5 C 67 % 1011,3 hPa 0,0 l/m 1,0 km/h N 20,8 C 27,5 C 8,9 km/h
12.07.2016 13:00 28,6 C 62 % 1010,7 hPa 0,0 l/m 1,0 km/h N 20,6 C 28,6 C 8,9 km/h
12.07.2016 14:00 29,4 C 60 % 1010,3 hPa 0,0 l/m 0,8 km/h N 20,8 C 29,4 C 6,0 km/h
12.07.2016 15:00 28,1 C 63 % 1009,9 hPa 0,0 l/m 0,1 km/h N 20,3 C 28,1 C 4,0 km/h
12.07.2016 16:00 26,3 C 71 % 1010,4 hPa 1,3 l/m 0,7 km/h N 20,5 C 26,3 C 3,6 km/h
12.07.2016 17:00 21,2 C 79 % 1010,5 hPa 8,1 l/m 1,4 km/h N 17,4 C 21,2 C 10,9 km/h
12.07.2016 18:00 19,4 C 81 % 1009,7 hPa 3,9 l/m 0,2 km/h N 16,0 C 19,4 C 4,4 km/h
12.07.2016 19:00 19,7 C 81 % 1009,2 hPa 0,3 l/m 0,0 km/h N 16,4 C 19,7 C 2,0 km/h
12.07.2016 20:00 19,8 C 81 % 1008,9 hPa 0,3 l/m 0,0 km/h N 16,5 C 19,8 C 1,2 km/h
12.07.2016 21:00 19,7 C 81 % 1008,1 hPa 0,3 l/m 0,0 km/h N 16,3 C 19,7 C 0,4 km/h
12.07.2016 22:00 19,4 C 81 % 1009,6 hPa 3,6 l/m 5,7 km/h N 16,1 C 19,1 C 27,8 km/h
12.07.2016 23:00 19,2 C 81 % 1010,0 hPa 3,6 l/m 8,6 km/h N 15,8 C 17,8 C 24,5 km/h
13.07.2016 00:00 19,0 C 81 % 1010,4 hPa 1,6 l/m 8,8 km/h N 15,7 C 18,0 C 22,1 km/h
13.07.2016 01:00 19,0 C 82 % 1010,6 hPa 1,6 l/m 5,5 km/h N 15,8 C 18,7 C 14,9 km/h
13.07.2016 02:00 18,9 C 82 % 1010,5 hPa 0,8 l/m 5,5 km/h N 15,7 C 18,8 C 15,7 km/h
13.07.2016 03:00 19,2 C 82 % 1010,0 hPa 0,0 l/m 4,9 km/h N 16,0 C 18,9 C 15,3 km/h
13.07.2016 04:00 19,0 C 81 % 1010,2 hPa 0,0 l/m 3,0 km/h N 15,7 C 19,0 C 10,9 km/h
13.07.2016 05:00 18,7 C 82 % 1010,5 hPa 0,0 l/m 0,4 km/h N 15,5 C 18,7 C 4,4 km/h
13.07.2016 06:00 19,0 C 82 % 1010,8 hPa 0,0 l/m 4,8 km/h N 15,7 C 18,8 C 15,3 km/h
13.07.2016 07:00 18,9 C 81 % 1011,5 hPa 0,5 l/m 7,5 km/h N 15,5 C 18,2 C 20,5 km/h
13.07.2016 08:00 18,4 C 82 % 1012,4 hPa 0,8 l/m 6,8 km/h N 15,2 C 18,0 C 18,9 km/h
13.07.2016 09:00 18,7 C 82 % 1012,3 hPa 0,5 l/m 2,4 km/h N 15,6 C 18,7 C 10,5 km/h
13.07.2016 10:00 20,5 C 79 % 1012,1 hPa 0,0 l/m 5,1 km/h N 16,8 C 20,4 C 16,9 km/h
13.07.2016 11:00 21,5 C 76 % 1012,0 hPa 0,0 l/m 5,5 km/h N 17,2 C 21,5 C 16,1 km/h
13.07.2016 12:00 22,4 C 73 % 1011,6 hPa 0,0 l/m 3,4 km/h N 17,3 C 22,4 C 15,7 km/h
13.07.2016 13:00 22,1 C 74 % 1011,3 hPa 0,0 l/m 4,0 km/h N 17,1 C 22,1 C 12,9 km/h
13.07.2016 14:00 22,2 C 72 % 1011,0 hPa 0,0 l/m 2,8 km/h N 16,9 C 22,2 C 9,7 km/h
13.07.2016 15:00 21,5 C 73 % 1010,8 hPa 0,0 l/m 2,1 km/h N 16,4 C 21,5 C 10,5 km/h
13.07.2016 16:00 20,6 C 77 % 1010,3 hPa 0,3 l/m 2,5 km/h N 16,5 C 20,6 C 10,5 km/h
13.07.2016 17:00 20,2 C 79 % 1010,0 hPa 0,0 l/m 1,1 km/h N 16,4 C 20,2 C 6,8 km/h
13.07.2016 18:00 20,0 C 78 % 1009,6 hPa 0,3 l/m 1,6 km/h N 15,9 C 20,0 C 8,9 km/h
13.07.2016 19:00 19,6 C 81 % 1008,7 hPa 1,0 l/m 0,2 km/h N 16,2 C 19,6 C 3,6 km/h
13.07.2016 20:00 18,7 C 81 % 1008,8 hPa 0,0 l/m 0,3 km/h N 15,4 C 18,7 C 3,6 km/h
13.07.2016 21:00 18,1 C 82 % 1009,1 hPa 1,0 l/m 1,0 km/h N 15,0 C 18,1 C 7,2 km/h
13.07.2016 22:00 17,6 C 82 % 1009,3 hPa 0,8 l/m 1,5 km/h N 14,5 C 17,6 C 8,4 km/h
13.07.2016 23:00 17,5 C 82 % 1009,1 hPa 0,5 l/m 2,7 km/h N 14,3 C 17,5 C 10,9 km/h
14.07.2016 00:00 16,7 C 82 % 1008,6 hPa 0,3 l/m 9,5 km/h N 13,6 C 15,3 C 31,0 km/h
14.07.2016 01:00 15,8 C 80 % 1008,0 hPa 0,0 l/m 12,4 km/h N 12,4 C 13,1 C 41,5 km/h
14.07.2016 02:00 15,2 C 81 % 1007,7 hPa 0,5 l/m 16,4 km/h N 11,9 C 10,9 C 42,3 km/h
14.07.2016 03:00 14,2 C 82 % 1008,0 hPa 0,5 l/m 11,1 km/h N 11,2 C 11,9 C 33,4 km/h
14.07.2016 04:00 13,4 C 82 % 1008,1 hPa 0,8 l/m 9,3 km/h N 10,5 C 11,8 C 31,8 km/h
14.07.2016 05:00 13,1 C 83 % 1008,0 hPa 0,5 l/m 9,4 km/h N 10,2 C 11,3 C 29,8 km/h
14.07.2016 06:00 12,8 C 83 % 1007,0 hPa 0,8 l/m 9,7 km/h N 9,9 C 10,5 C 33,0 km/h
14.07.2016 07:00 13,2 C 82 % 1007,1 hPa 0,5 l/m 11,0 km/h N 10,2 C 10,7 C 37,8 km/h
14.07.2016 08:00 14,4 C 80 % 1007,0 hPa 1,0 l/m 11,9 km/h N 10,9 C 11,6 C 35,0 km/h
14.07.2016 09:00 14,9 C 78 % 1007,5 hPa 0,5 l/m 13,2 km/h N 11,0 C 11,7 C 38,2 km/h
14.07.2016 10:00 15,6 C 76 % 1007,3 hPa 1,0 l/m 13,2 km/h N 11,3 C 12,5 C 43,5 km/h
14.07.2016 11:00 16,7 C 73 % 1007,7 hPa 0,8 l/m 16,5 km/h N 11,7 C 12,8 C 52,7 km/h
14.07.2016 12:00 17,4 C 70 % 1008,3 hPa 0,8 l/m 14,2 km/h N 11,7 C 14,3 C 47,1 km/h
14.07.2016 13:00 17,2 C 69 % 1009,5 hPa 0,5 l/m 14,3 km/h N 11,4 C 14,1 C 41,9 km/h
14.07.2016 14:00 17,1 C 68 % 1010,4 hPa 0,3 l/m 15,1 km/h N 11,1 C 13,8 C 40,6 km/h
14.07.2016 15:00 16,6 C 71 % 1011,4 hPa 0,3 l/m 12,1 km/h N 11,3 C 14,1 C 35,8 km/h
14.07.2016 16:00 17,3 C 71 % 1012,4 hPa 0,3 l/m 10,6 km/h N 12,0 C 15,4 C 31,0 km/h
14.07.2016 17:00 17,5 C 70 % 1013,0 hPa 0,3 l/m 12,4 km/h N 11,9 C 15,1 C 31,4 km/h
14.07.2016 18:00 17,4 C 69 % 1013,6 hPa 0,3 l/m 11,9 km/h N 11,7 C 15,1 C 30,2 km/h
14.07.2016 19:00 16,5 C 73 % 1014,2 hPa 0,0 l/m 11,2 km/h N 11,5 C 14,3 C 28,6 km/h
14.07.2016 20:00 15,8 C 75 % 1015,1 hPa 0,3 l/m 9,6 km/h N 11,4 C 14,1 C 27,4 km/h
14.07.2016 21:00 15,2 C 78 % 1016,2 hPa 0,0 l/m 9,9 km/h N 11,4 C 13,5 C 24,9 km/h
14.07.2016 22:00 14,9 C 78 % 1016,8 hPa 0,0 l/m 9,9 km/h N 11,1 C 13,1 C 24,5 km/h
14.07.2016 23:00 14,4 C 80 % 1017,5 hPa 0,3 l/m 7,7 km/h N 10,9 C 13,6 C 23,7 km/h
15.07.2016 00:00 14,2 C 79 % 1018,3 hPa 0,0 l/m 8,1 km/h N 10,6 C 13,2 C 20,1 km/h
15.07.2016 01:00 14,2 C 77 % 1018,5 hPa 0,0 l/m 8,0 km/h N 10,2 C 13,3 C 22,1 km/h
15.07.2016 02:00 14,2 C 74 % 1018,4 hPa 0,0 l/m 8,7 km/h N 9,6 C 12,9 C 23,3 km/h
15.07.2016 03:00 14,3 C 73 % 1018,1 hPa 0,0 l/m 10,2 km/h N 9,5 C 12,3 C 27,4 km/h
15.07.2016 04:00 13,9 C 74 % 1018,4 hPa 0,0 l/m 8,2 km/h N 9,3 C 12,8 C 23,7 km/h
15.07.2016 05:00 13,8 C 73 % 1018,5 hPa 0,0 l/m 7,9 km/h N 9,0 C 12,9 C 23,3 km/h
15.07.2016 06:00 13,9 C 73 % 1018,8 hPa 0,0 l/m 5,9 km/h N 9,1 C 13,8 C 20,1 km/h
15.07.2016 07:00 14,7 C 72 % 1019,2 hPa 0,3 l/m 10,8 km/h N 9,6 C 12,5 C 24,9 km/h
15.07.2016 08:00 15,4 C 70 % 1020,0 hPa 0,0 l/m 12,4 km/h N 9,8 C 12,6 C 31,0 km/h
15.07.2016 09:00 16,4 C 67 % 1020,5 hPa 0,0 l/m 13,3 km/h N 10,3 C 13,5 C 30,6 km/h
15.07.2016 10:00 17,1 C 67 % 1020,8 hPa 0,0 l/m 12,8 km/h N 11,0 C 14,5 C 29,0 km/h
15.07.2016 11:00 18,0 C 66 % 1021,0 hPa 0,0 l/m 12,0 km/h N 11,4 C 15,7 C 28,6 km/h
15.07.2016 12:00 18,0 C 65 % 1021,1 hPa 0,0 l/m 11,8 km/h N 11,4 C 15,9 C 29,8 km/h
15.07.2016 13:00 18,2 C 64 % 1021,0 hPa 0,0 l/m 11,9 km/h N 11,3 C 16,0 C 26,1 km/h
15.07.2016 14:00 19,1 C 63 % 1020,6 hPa 0,0 l/m 11,8 km/h N 11,8 C 17,1 C 29,8 km/h
15.07.2016 15:00 19,5 C 62 % 1020,3 hPa 0,0 l/m 12,2 km/h N 12,1 C 17,4 C 35,0 km/h
15.07.2016 16:00 19,0 C 63 % 1020,1 hPa 0,0 l/m 9,4 km/h N 11,9 C 17,8 C 24,5 km/h
15.07.2016 17:00 18,7 C 64 % 1020,1 hPa 0,0 l/m 8,1 km/h N 11,8 C 18,0 C 22,1 km/h
15.07.2016 18:00 18,9 C 62 % 1019,9 hPa 0,0 l/m 7,6 km/h N 11,5 C 18,3 C 21,3 km/h
15.07.2016 19:00 18,6 C 61 % 1020,3 hPa 0,0 l/m 6,4 km/h N 11,0 C 18,3 C 20,5 km/h
15.07.2016 20:00 17,7 C 64 % 1020,7 hPa 0,0 l/m 8,5 km/h N 10,8 C 16,7 C 24,5 km/h
15.07.2016 21:00 17,0 C 67 % 1021,4 hPa 0,0 l/m 7,7 km/h N 10,7 C 16,3 C 24,5 km/h
15.07.2016 22:00 16,3 C 70 % 1021,9 hPa 0,0 l/m 6,6 km/h N 10,7 C 16,0 C 20,1 km/h
15.07.2016 23:00 15,9 C 70 % 1022,0 hPa 0,0 l/m 6,6 km/h N 10,4 C 15,6 C 21,3 km/h
16.07.2016 00:00 15,6 C 72 % 1022,6 hPa 0,0 l/m 5,8 km/h N 10,6 C 15,4 C 19,7 km/h
16.07.2016 01:00 15,3 C 74 % 1022,2 hPa 0,0 l/m 5,5 km/h N 10,7 C 15,3 C 16,9 km/h
16.07.2016 02:00 15,0 C 75 % 1021,3 hPa 0,0 l/m 9,3 km/h N 10,5 C 13,4 C 23,7 km/h
16.07.2016 03:00 14,9 C 75 % 1021,0 hPa 0,0 l/m 10,4 km/h N 10,5 C 12,8 C 24,5 km/h
16.07.2016 04:00 14,9 C 75 % 1021,1 hPa 0,0 l/m 8,6 km/h N 10,5 C 13,7 C 21,3 km/h
16.07.2016 05:00 14,8 C 75 % 1020,8 hPa 0,0 l/m 10,3 km/h N 10,3 C 12,9 C 24,9 km/h
16.07.2016 06:00 14,8 C 74 % 1020,7 hPa 0,0 l/m 10,5 km/h N 10,2 C 12,7 C 28,6 km/h
16.07.2016 07:00 14,8 C 75 % 1020,8 hPa 0,0 l/m 10,5 km/h N 10,3 C 12,6 C 29,8 km/h
16.07.2016 08:00 14,9 C 75 % 1020,8 hPa 0,0 l/m 9,9 km/h N 10,4 C 13,0 C 26,5 km/h
16.07.2016 09:00 15,0 C 74 % 1020,8 hPa 0,0 l/m 10,3 km/h N 10,3 C 13,0 C 26,2 km/h
16.07.2016 10:00 15,6 C 73 % 1020,7 hPa 0,0 l/m 8,3 km/h N 10,8 C 14,5 C 22,9 km/h
16.07.2016 11:00 16,5 C 70 % 1020,4 hPa 0,0 l/m 8,3 km/h N 11,0 C 15,5 C 22,1 km/h
16.07.2016 12:00 17,3 C 67 % 1020,0 hPa 0,0 l/m 8,0 km/h N 11,0 C 16,5 C 23,7 km/h
16.07.2016 13:00 17,8 C 64 % 1019,7 hPa 0,0 l/m 10,3 km/h N 10,9 C 16,1 C 27,0 km/h
16.07.2016 14:00 17,7 C 63 % 1019,3 hPa 0,0 l/m 9,2 km/h N 10,6 C 16,4 C 23,7 km/h
16.07.2016 15:00 17,5 C 65 % 1019,3 hPa 0,0 l/m 7,6 km/h N 10,8 C 16,9 C 24,5 km/h
16.07.2016 16:00 16,9 C 70 % 1019,7 hPa 0,0 l/m 2,3 km/h N 11,4 C 16,9 C 12,9 km/h
16.07.2016 17:00 16,3 C 75 % 1019,8 hPa 0,0 l/m 2,4 km/h N 11,8 C 16,3 C 9,7 km/h
16.07.2016 18:00 16,2 C 76 % 1019,8 hPa 0,0 l/m 2,6 km/h N 12,0 C 16,2 C 8,5 km/h
16.07.2016 19:00 16,1 C 76 % 1019,9 hPa 0,0 l/m 1,6 km/h N 11,8 C 16,1 C 8,4 km/h
16.07.2016 20:00 16,1 C 74 % 1020,2 hPa 0,0 l/m 1,0 km/h N 11,5 C 16,1 C 8,9 km/h
16.07.2016 21:00 15,0 C 79 % 1020,7 hPa 0,3 l/m 1,5 km/h N 11,4 C 15,0 C 8,4 km/h
16.07.2016 22:00 14,4 C 81 % 1020,8 hPa 0,0 l/m 1,8 km/h N 11,2 C 14,4 C 8,9 km/h
16.07.2016 23:00 14,1 C 82 % 1020,3 hPa 0,3 l/m 2,4 km/h N 11,0 C 14,1 C 10,1 km/h
17.07.2016 00:00 14,0 C 82 % 1019,9 hPa 0,0 l/m 0,3 km/h N 11,0 C 14,0 C 3,6 km/h
17.07.2016 01:00 14,0 C 82 % 1019,6 hPa 0,0 l/m 0,9 km/h N 11,0 C 14,0 C 7,2 km/h
17.07.2016 02:00 14,3 C 81 % 1019,6 hPa 0,0 l/m 1,4 km/h N 11,1 C 14,3 C 7,2 km/h
17.07.2016 03:00 14,2 C 82 % 1019,2 hPa 0,5 l/m 1,1 km/h N 11,1 C 14,2 C 7,6 km/h
17.07.2016 04:00 13,8 C 82 % 1018,6 hPa 1,0 l/m 1,2 km/h N 10,8 C 13,8 C 8,1 km/h
17.07.2016 05:00 13,5 C 82 % 1018,8 hPa 0,8 l/m 0,8 km/h N 10,4 C 13,5 C 8,8 km/h
17.07.2016 06:00 13,8 C 82 % 1018,2 hPa 0,3 l/m 3,7 km/h N 10,8 C 13,6 C 12,0 km/h
17.07.2016 07:00 14,8 C 82 % 1017,8 hPa 0,0 l/m 6,9 km/h N 11,7 C 14,4 C 19,7 km/h
17.07.2016 08:00 16,0 C 78 % 1017,7 hPa 0,0 l/m 6,1 km/h N 12,2 C 15,9 C 19,7 km/h
17.07.2016 09:00 17,5 C 75 % 1017,8 hPa 0,0 l/m 8,1 km/h N 12,9 C 16,6 C 21,7 km/h
17.07.2016 10:00 19,6 C 68 % 1017,4 hPa 0,0 l/m 10,3 km/h N 13,5 C 18,1 C 26,6 km/h
17.07.2016 11:00 20,2 C 68 % 1017,6 hPa 0,0 l/m 11,7 km/h N 14,0 C 18,4 C 27,4 km/h
17.07.2016 12:00 20,2 C 66 % 1017,6 hPa 0,0 l/m 10,6 km/h N 13,6 C 18,6 C 26,5 km/h
17.07.2016 13:00 20,9 C 66 % 1017,2 hPa 0,0 l/m 9,1 km/h N 14,2 C 19,9 C 26,1 km/h
17.07.2016 14:00 21,4 C 68 % 1016,8 hPa 0,0 l/m 13,2 km/h N 15,3 C 19,4 C 33,8 km/h
17.07.2016 15:00 20,5 C 72 % 1016,8 hPa 0,0 l/m 15,3 km/h N 15,3 C 17,9 C 35,4 km/h
17.07.2016 16:00 19,5 C 76 % 1016,8 hPa 0,0 l/m 15,3 km/h N 15,2 C 16,6 C 35,8 km/h
17.07.2016 17:00 19,8 C 78 % 1016,7 hPa 0,0 l/m 11,3 km/h N 15,8 C 18,1 C 29,3 km/h
17.07.2016 18:00 20,6 C 76 % 1016,6 hPa 0,0 l/m 11,4 km/h N 16,3 C 19,0 C 26,6 km/h
17.07.2016 19:00 20,6 C 76 % 1016,7 hPa 0,0 l/m 11,1 km/h N 16,2 C 18,9 C 28,1 km/h
17.07.2016 20:00 20,2 C 76 % 1016,7 hPa 0,0 l/m 12,2 km/h N 15,7 C 18,3 C 29,8 km/h
17.07.2016 21:00 20,1 C 77 % 1017,3 hPa 0,0 l/m 12,2 km/h N 15,8 C 18,1 C 29,4 km/h
17.07.2016 22:00 19,8 C 79 % 1017,7 hPa 0,0 l/m 11,3 km/h N 15,9 C 18,0 C 27,0 km/h
17.07.2016 23:00 19,3 C 80 % 1018,0 hPa 0,0 l/m 9,7 km/h N 15,8 C 18,0 C 24,5 km/h
Min-Datum _ 14.07.16 11.07.16 14.07.16 - 11.07.16 - 15.07.16 14.07.16 11.07.16
_ Min-Zeit 06:30 12:15 06:45 - 00:00 - 05:30 06:30 00:00
Minimum _ 12,7 C 42 % 1006,5 hPa - 0,0 km/h - 8,9 C 8,5 C 0,0 km/h
Max-Datum _ 11.07.16 14.07.16 16.07.16 12.07.16 14.07.16 - 11.07.16 11.07.16 14.07.16
_ Max-Zeit 12:45 04:15 00:30 03:00 11:30 - 11:15 12:45 11:30
Maximum _ 35,4 C 83 % 1022,8 hPa 8,6 l/m 18,7 km/h
N
- 22,2 C 35,4 C 56,3 km/h
N
Durchschnitt _ 19,3 C 73 % 1014,4 hPa #59,0 l/m 6,0 km/h N 14,2 C 18,5 C 18,1 km/h